Tiempo atmosférico en la estación meteorológica de Mosqueruela, Teruel (1505 m.)



Fecha
DESCASC
Temp. máxima en grados centígrados (hora)
DESCASC
Temp. mínima en grados centígrados (hora)
DESCASC
Temp. media en grados centígrados
DESCASC
Racha de viento máxima en m/sg (hora)
DESCASC
Velocidad máxima media en intervalos de 10 minutos(hora)
DESCASC
Precipitaciones diarias en mm
DESCASC
Precipitaciones de 00:00 a 06:00 en mm
DESCASC
Precipitaciones de 06:00 a 12:00 en mm
DESCASC
Precipitaciones de 12:00 a 18:00 en mm
DESCASC
Precipitaciones de 18:00 a 24:00 en mm
DESCASC
13-10-2019 19.7 (15:00) 10 (03:00) 14.9 7.78 (14:40) 5.56 (01:20) 0 0 0 0 0
12-10-2019 19.7 (15:00) 11.1 (22:20) 15.4 8.33 (04:00) 5 (04:00) 0 0 0 0 0
10-10-2019 17 (15:10) 10.9 (00:00) 13.9 10.28 (15:30) 6.94 (15:30) 0 0 0 0 0
09-10-2019 22 (13:10) 12.4 (00:00) 17.2 8.61 (00:10) 7.5 (00:10) 0 0 0 0 0
08-10-2019 21.9 (15:50) 10.9 (00:00) 16.4 16.39 (01:40) 13.06 (00:50) 0 0 0 0 0
07-10-2019 19.3 (16:40) 8.3 (00:00) 13.8 17.5 (09:00) 12.5 (23:10) 0 0 0 0 0
06-10-2019 20.5 (14:40) 10.6 (00:00) 15.6 8.61 (17:20) 5.83 (06:20) 0 0 0 0 0
05-10-2019 22.1 (17:10) 11.4 (07:20) 16.8 8.33 (09:20) 6.11 (11:10) 0 0 0 0 0
04-10-2019 22.9 (15:30) 11.6 (00:00) 17.3 16.94 (04:00) 13.33 (04:00) 0 0 0 0 0
03-10-2019 21 (16:00) 5.2 (00:00) 13.1 16.94 (00:10) 12.5 (00:10) 0 0 0 0 0
02-10-2019 14.5 (16:10) 8.2 (00:00) 11.3 20.83 (21:30) 16.67 (21:30) 0 0 0 0 0
01-10-2019 23.2 (15:30) 11.7 (00:00) 17.5 11.39 (22:00) 8.33 (22:40) 0 0 0 0 0
30-09-2019 23 (14:10) 13.3 (00:00) 18.2 8.61 (16:30) 6.67 (01:30) 0 0 0 0 0
29-09-2019 24.3 (16:20) 10.8 (00:00) 17.5 9.44 (15:10) 5.83 (11:50) 0 0 0 0 0
28-09-2019 20.5 (15:10) 10.5 (00:00) 15.5 8.33 (14:10) 7.22 (01:00) 0 0 0 0 0
27-09-2019 23.3 (14:10) 12.3 (00:00) 17.8 15.56 (14:20) 6.67 (00:20) 0 0 0 0 0
26-09-2019 22.1 (16:10) 9.7 (00:00) 15.9 8.61 (17:50) 6.67 (02:40) 0 0 0 0 0
25-09-2019 20.4 (16:00) 10.9 (00:00) 15.6 7.78 (05:40) 5.83 (08:00) 0 0 0 0 0
24-09-2019 23.5 (16:20) 10.5 (00:00) 17 12.78 (13:50) 8.61 (13:50) 0 0 0 0 0
23-09-2019 19.3 (17:50) 6.7 (00:00) 13 8.33 (14:20) 5 (14:30) 0 0 0 0 0
22-09-2019 19.8 (14:50) 10.7 (00:00) 15.2 15.56 (06:40) 11.11 (07:00) 0 0 0 0 0
21-09-2019 18.7 (16:40) 9.8 (00:00) 14.3 11.39 (07:50) 7.22 (03:40) 20.2 18.2 2 0 0
20-09-2019 17.2 (13:40) 10.1 (00:00) 13.7 8.33 (18:30) 5.83 (15:20) 1.4 0 0.2 0.2 1
19-09-2019 20.5 (13:50) 10.1 (00:00) 15.3 8.33 (13:20) 5.56 (15:20) 5.4 0 0.2 0 5.2
18-09-2019 22.6 (12:30) 11.8 (00:00) 17.2 11.39 (17:10) 7.78 (17:10) 9.2 0 0 3.4 5.8
17-09-2019 22.2 (13:50) 13.2 (00:00) 17.7 17.78 (22:00) 10 (22:10) 0 0 0 0 0

Gráficas

Temp. máximas Temp. mínimas Temp. medias Precipitaciones Rachas de viento máximas Velocidades máximas media en intervalos de 10 minutos

Datos horarios

Fecha y hora oficial Temperatura (ºC) Velocidad del viento (km/h) Dirección del viento Racha (km/h) Dirección de racha Precipitación (mm) Presión (hPa) Tendencia (hPa) Humedad (%)
2019-10-16 23:00:00 8.2 9 Sur 17 Sudoeste 0 -- -- 63
2019-10-16 22:00:00 9.3 7 Oeste 24 Oeste 0 -- -- 61
2019-10-16 21:00:00 9.2 14 Sudoeste 19 Sudoeste 0 -- -- 64
2019-10-16 20:00:00 9.8 17 Sudoeste 19 Sudoeste 0 -- -- 65
2019-10-16 19:00:00 12.2 6 Sudeste 15 Sudeste 0 -- -- 63
2019-10-16 18:00:00 16.1 6 Sudeste 14 Nordeste 0 -- -- 45
2019-10-16 17:00:00 17.3 9 Este 34 Nordeste 0 -- -- 40
2019-10-16 16:00:00 17.8 14 Sudeste 22 Sudeste 0 -- -- 33
2019-10-16 15:00:00 17.3 10 Sudeste 17 Sur 0 -- -- 34
2019-10-16 14:00:00 16.6 7 Este 18 Este 0 -- -- 31
2019-10-16 13:00:00 15.3 5 Este 13 Este 0 -- -- 32
2019-10-16 12:00:00 13.9 7 Este 12 Este 0 -- -- 33
2019-10-16 11:00:00 12.1 5 Este 12 Nordeste 0 -- -- 36
2019-10-16 10:00:00 10.8 2 Noroeste 10 Oeste 0 -- -- 37
2019-10-16 09:00:00 5.9 8 Oeste 15 Sudoeste 0 -- -- 43
2019-10-16 08:00:00 5.1 10 Sudoeste 15 Sudoeste 0 -- -- 44
2019-10-16 07:00:00 5.3 12 Sudoeste 17 Sudoeste 0 -- -- 47
2019-10-16 06:00:00 6.4 11 Sudoeste 17 Sudoeste 0 -- -- 48
2019-10-16 05:00:00 6.2 15 Sudoeste 23 Sudoeste 0 -- -- 55
2019-10-16 04:00:00 4.9 15 Sudoeste 17 Sudoeste 0 -- -- 68
2019-10-16 03:00:00 4.3 4 Sudoeste 15 Sudoeste 0 -- -- 69
2019-10-16 02:00:00 4.2 14 Sudoeste 19 Sudoeste 0 -- -- 71
2019-10-16 01:00:00 4 9 Sudoeste 20 Oeste 0 -- -- 71
2019-10-16 00:00:00 4.5 2 Oeste 17 Oeste 0 -- -- 67
2019-10-15 23:00:00 5.9 16 Oeste 22 Oeste 0 -- -- 59
2019-10-15 22:00:00 6.2 10 Sudoeste 14 Sudoeste 0 -- -- 57
2019-10-15 21:00:00 5.4 9 Sudoeste 12 Sudoeste 0 -- -- 60
2019-10-15 20:00:00 5.5 5 Sudoeste 10 Sudoeste 0 -- -- 61
2019-10-15 19:00:00 9 10 Oeste 14 Oeste 0 -- -- 48
2019-10-15 18:00:00 11.2 10 Oeste 25 Sudoeste 0 -- -- 44
2019-10-15 17:00:00 11.9 12 Noroeste 26 Oeste 0 -- -- 41
2019-10-15 16:00:00 12.2 8 Oeste 36 Noroeste 0 -- -- 39
2019-10-15 15:00:00 11.4 19 Oeste 37 Oeste 0 -- -- 42
2019-10-15 14:00:00 10.3 21 Oeste 37 Oeste 0 -- -- 45
2019-10-15 13:00:00 9.4 26 Noroeste 60 Oeste 0 -- -- 41
2019-10-15 12:00:00 7 46 Oeste 74 Oeste 0 -- -- 51
2019-10-15 11:00:00 5.6 50 Oeste 76 Oeste 0 -- -- 62
2019-10-15 10:00:00 3.5 37 Noroeste 67 Oeste 0 -- -- 74
2019-10-15 09:00:00 2.7 28 Noroeste 61 Oeste 0 -- -- 76
2019-10-15 08:00:00 1.8 28 Oeste 56 Oeste 0 -- -- 82
2019-10-15 07:00:00 2 30 Oeste 56 Oeste 0 -- -- 82
2019-10-15 06:00:00 2.5 38 Oeste 53 Oeste 0 -- -- 79
2019-10-15 05:00:00 3.1 28 Noroeste 50 Oeste 0 -- -- 77
2019-10-15 04:00:00 4.1 26 Oeste 56 Oeste 0 -- -- 79
2019-10-15 03:00:00 4.9 27 Oeste 58 Oeste 0 -- -- 80
2019-10-15 02:00:00 5.5 28 Oeste 48 Oeste 0 -- -- 77
2019-10-15 01:00:00 7.6 11 Sudoeste 31 Sudoeste 0 -- -- 74
2019-10-15 00:00:00 9.5 17 Oeste 28 Oeste 0 -- -- 69
2019-10-14 23:00:00 8.7 6 Sur 20 Sudoeste 0 -- -- 77
2019-10-14 22:00:00 10.9 15 Sudoeste 32 Sudoeste 0 -- -- 71
2019-10-14 21:00:00 11.3 14 Sur 32 Sur 0 -- -- 76
2019-10-14 20:00:00 12 14 Sur 33 Sur 0.2 -- -- 81
2019-10-14 19:00:00 12.8 26 Sur 41 Sur 0 -- -- 78
2019-10-14 18:00:00 13 19 Sur 33 Sur 0 -- -- 81
2019-10-14 17:00:00 13.2 14 Sur 35 Sur 0 -- -- 81
2019-10-14 16:00:00 13.2 23 Sur 39 Sudeste 0 -- -- 80
2019-10-14 15:00:00 13.7 14 Sur 23 Sudeste 0.2 -- -- 82
2019-10-14 14:00:00 11.3 15 Sur 61 Sudoeste 0.8 -- -- 84
2019-10-14 13:00:00 14.3 39 Sudoeste 59 Sudoeste 0 -- -- 71
2019-10-14 12:00:00 13.6 22 Sur 48 Sudoeste 0 -- -- 76
2019-10-14 11:00:00 13.3 20 Sur 34 Sur 0 -- -- 77
2019-10-14 10:00:00 13.7 17 Sur 28 Sur 0 -- -- 70
2019-10-14 09:00:00 13.8 16 Sur 30 Sur 0 -- -- 67
2019-10-14 08:00:00 12.5 14 Sur 27 Sur 0 -- -- 71
2019-10-14 07:00:00 12.7 16 Sur 26 Sur 0 -- -- 74
2019-10-14 06:00:00 12.3 10 Sur 26 Sur 0 -- -- 85
2019-10-14 05:00:00 13 15 Sur 26 Sur 0 -- -- 85
2019-10-14 04:00:00 12 4 Sur 13 Sudoeste 0 -- -- 91
2019-10-14 03:00:00 12.2 9 Sudoeste 20 Sur 0 -- -- 95
2019-10-14 02:00:00 12 11 Sudoeste 18 Sur 0 -- -- 96
2019-10-14 01:00:00 10.8 9 Sudoeste 16 Sudoeste 0 -- -- 94
2019-10-14 00:00:00 11.8 8 Sur 19 Sur 0 -- -- 94
2019-10-13 23:00:00 12.4 9 Sur 21 Sur 0 -- -- 96
2019-10-13 22:00:00 12.9 9 Sur 17 Sur 0 -- -- 96
2019-10-13 21:00:00 13.6 3 Sudoeste 14 Sur 0 -- -- 93
2019-10-13 20:00:00 13.8 12 Sur 18 Sur 0 -- -- 94
2019-10-13 19:00:00 15.1 11 Sudeste 21 Sudeste 0 -- -- 88
2019-10-13 18:00:00 16.6 14 Sudeste 24 Sur 0 -- -- 80
2019-10-13 17:00:00 17.9 11 Sudeste 26 Sur 0 -- -- 72
2019-10-13 16:00:00 18.8 15 Sudeste 26 Sudeste 0 -- -- 65
2019-10-13 15:00:00 19.7 14 Sur 28 Sudeste 0 -- -- 62
2019-10-13 14:00:00 19.5 15 Sur 27 Sudeste 0 -- -- 60
2019-10-13 13:00:00 18.3 13 Sudeste 23 Sur 0 -- -- 66
2019-10-13 12:00:00 17.2 13 Sur 26 Sur 0 -- -- 69
2019-10-13 11:00:00 15.8 14 Sudeste 26 Sur 0 -- -- 71
2019-10-13 10:00:00 14.8 11 Sur 25 Sur 0 -- -- 76
2019-10-13 09:00:00 12.2 11 Sudoeste 19 Sudoeste 0 -- -- 80
2019-10-13 08:00:00 10 10 Sudoeste 21 Sur 0 -- -- 96
2019-10-13 07:00:00 10.2 13 Sur 23 Sur 0 -- -- 95
2019-10-13 06:00:00 10.3 14 Sur 22 Sur 0 -- -- 99
2019-10-13 05:00:00 10.5 7 Sur 12 Sur 0 -- -- 82
2019-10-13 04:00:00 11.3 12 Sudoeste 19 Sudoeste 0 -- -- 74
2019-10-13 03:00:00 10 4 Oeste 20 Sudoeste 0 -- -- 84
2019-10-13 02:00:00 11.5 17 Sudoeste 24 Sudoeste 0 -- -- 78
2019-10-13 01:00:00 10.7 13 Sudoeste 20 Sudoeste 0 -- -- 91
2019-10-13 00:00:00 11.1 12 Sur 17 Sur 0 -- -- 95
2019-10-12 23:00:00 11.5 8 Sur 20 Sur 0 -- -- 99
2019-10-12 22:00:00 11.3 5 Oeste 19 Este 0 -- -- 96
2019-10-12 21:00:00 12.4 4 Sudeste 22 Sudoeste 0 -- -- 93
2019-10-12 20:00:00 13.1 12 Sur 17 Sur 0 -- -- 91
2019-10-12 19:00:00 14.3 12 Sur 18 Sudeste 0 -- -- 86
2019-10-12 18:00:00 16 13 Sudeste 19 Sudeste 0 -- -- 78
2019-10-12 17:00:00 17.1 13 Sudeste 20 Sudeste 0 -- -- 74
2019-10-12 16:00:00 16.9 12 Sudeste 27 Este 0 -- -- 71
2019-10-12 15:00:00 19.7 16 Este 24 Sudeste 0 -- -- 59
2019-10-12 14:00:00 18.5 10 Sur 22 Sudeste 0 -- -- 53
2019-10-12 13:00:00 19.1 14 Sudeste 25 Sudeste 0 -- -- 49
2019-10-12 12:00:00 19.4 15 Sudeste 24 Sur 0 -- -- 43
2019-10-12 11:00:00 18.8 14 Sur 24 Sur 0 -- -- 43
2019-10-12 10:00:00 16.6 7 Sudeste 23 Sur 0 -- -- 49
2019-10-12 09:00:00 15.2 15 Sur 25 Sur 0 -- -- 48
2019-10-12 08:00:00 13.2 10 Sudoeste 18 Sur 0 -- -- 60
2019-10-12 07:00:00 13.3 10 Sudoeste 23 Sur 0 -- -- 59
2019-10-12 06:00:00 14 14 Sur 21 Sur 0 -- -- 57
2019-10-12 05:00:00 13.7 14 Sur 26 Sur 0 -- -- 67
2019-10-12 04:00:00 13.9 18 Sur 30 Sur 0 -- -- 70
2019-10-12 03:00:00 13.7 13 Sur 23 Sur 0 -- -- 76
2019-10-12 02:00:00 12.4 7 Sur 13 Sur 0 -- -- 80
2019-10-12 01:00:00 13 4 Sudeste 22 Sur 0 -- -- 89
2019-10-12 00:00:00 14.6 12 Sur 23 Sur 0 -- -- 71
2019-10-11 23:00:00 14.7 12 Sur 23 Sudoeste 0 -- -- 71
2019-10-11 22:00:00 14.6 15 Sudoeste 24 Sudoeste 0 -- -- 66
2019-10-11 21:00:00 15.5 14 Sudoeste 21 Sudoeste 0 -- -- 57
2019-10-11 20:00:00 15 15 Sudoeste 28 Sur 0 -- -- 77
2019-10-11 19:00:00 16.1 15 Sur 24 Sur 0 -- -- 78
2019-10-11 18:00:00 18.4 20 Sur 27 Sur 0 -- -- 68
2019-10-11 17:00:00 19.4 17 Sur 30 Sur 0 -- -- 66
2019-10-11 16:00:00 20.1 17 Sur 31 Sur 0 -- -- 57
2019-10-11 15:00:00 21.1 19 Sur 30 Sur 0 -- -- 52
2019-10-11 14:00:00 21.1 18 Sur 28 Sur 0 -- -- 55
2019-10-11 13:00:00 21.5 19 Sur 28 Sur 0 -- -- 50
2019-10-11 12:00:00 20.7 17 Sudeste 25 Sur 0 -- -- 55
2019-10-11 11:00:00 18.9 10 Sudeste 14 Este 0 -- -- 62
2019-10-11 10:00:00 17.8 4 Este 8 Sudoeste 0 -- -- 63
2019-10-11 09:00:00 14.2 6 Oeste 17 Sudoeste 0 -- -- 71
2019-10-11 08:00:00 12.1 14 Sudoeste 16 Sudoeste 0 -- -- 79
2019-10-11 07:00:00 12.8 7 Sudoeste 17 Sudoeste 0 -- -- 78
2019-10-11 06:00:00 12.7 16 Sudoeste 19 Sudoeste 0 -- -- 81
2019-10-11 05:00:00 11.9 10 Sudoeste 13 Sudoeste 0 -- -- 82
2019-10-11 04:00:00 10.8 4 Sudoeste 10 Oeste 0 -- -- 87
2019-10-11 03:00:00 11.4 6 Oeste 12 Sudoeste 0 -- -- 85
2019-10-11 02:00:00 11.8 7 Oeste 18 Oeste 0 -- -- 87
2019-10-11 01:00:00 11.9 15 Oeste 18 Oeste 0 -- -- 90
2019-10-11 00:00:00 11.7 12 Oeste 18 Oeste 0 -- -- 91
2019-10-10 23:00:00 11.6 10 Sudoeste 27 Oeste 0 -- -- 91
2019-10-10 22:00:00 12.6 22 Oeste 28 Oeste 0 -- -- 90
2019-10-10 21:00:00 12.1 12 Oeste 19 Oeste 0 -- -- 93
2019-10-10 20:00:00 11.9 9 Sur 17 Sudeste 0 -- -- 98
2019-10-10 19:00:00 12.6 6 Sudoeste 26 Sur 0 -- -- 95
2019-10-10 18:00:00 14.1 17 Sur 30 Sudoeste 0 -- -- 89
2019-10-10 17:00:00 15.7 22 Sur 35 Sur 0 -- -- 83
2019-10-10 16:00:00 16.3 23 Sur 37 Sur 0 -- -- 79
2019-10-10 15:00:00 16.7 22 Sur 30 Sur 0 -- -- 78
2019-10-10 14:00:00 15.4 17 Sudeste 27 Sur 0 -- -- 86
2019-10-10 13:00:00 14.9 17 Sur 26 Sudeste 0 -- -- 86
2019-10-10 12:00:00 15.1 18 Sur 23 Sudeste 0 -- -- 85
2019-10-10 11:00:00 13.6 14 Sur 24 Sur 0 -- -- 92
2019-10-10 10:00:00 13.7 13 Sur 23 Sur 0 -- -- 90
2019-10-10 09:00:00 11 0 Calma 12 Este 0 -- -- 97
2019-10-10 08:00:00 12.1 7 Sur 30 Sudoeste 0 -- -- 92
2019-10-10 07:00:00 11.9 12 Sudoeste 22 Sudoeste 0 -- -- 91
2019-10-10 06:00:00 11.8 8 Sur 20 Sur 0 -- -- 94
2019-10-10 05:00:00 12 8 Sur 14 Sur 0 -- -- 95
2019-10-10 04:00:00 11.4 2 Sudeste 4 Este 0 -- -- 88
2019-10-10 03:00:00 11.7 3 Este 6 Este 0 -- -- 85
2019-10-10 02:00:00 11.9 3 Sur 5 Este 0 -- -- 85
2019-10-10 01:00:00 12.2 0 Calma 5 Norte 0 -- -- 83
2019-10-10 00:00:00 12.4 4 Norte 10 Nordeste 0 -- -- 83
2019-10-09 23:00:00 12.8 5 Nordeste 8 Norte 0 -- -- 83
2019-10-09 22:00:00 13.2 4 Nordeste 9 Oeste 0 -- -- 82
2019-10-09 21:00:00 13.6 6 Norte 11 Norte 0 -- -- 80
2019-10-09 20:00:00 14.3 6 Norte 13 Nordeste 0 -- -- 78
2019-10-09 19:00:00 15.8 9 Nordeste 17 Norte 0 -- -- 74
2019-10-09 18:00:00 16.8 10 Nordeste 19 Nordeste 0 -- -- 80
2019-10-09 17:00:00 17.7 14 Este 22 Nordeste 0 -- -- 78
2019-10-09 16:00:00 18.9 10 Este 21 Este 0 -- -- 70
2019-10-09 15:00:00 19.8 15 Nordeste 22 Nordeste 0 -- -- 65
2019-10-09 14:00:00 19 13 Este 27 Este 0 -- -- 63
2019-10-09 13:00:00 21.9 9 Este 18 Sudeste 0 -- -- 52
2019-10-09 12:00:00 21.3 10 Este 18 Sudeste 0 -- -- 50
2019-10-09 11:00:00 20.5 10 Norte 18 Norte 0 -- -- 49
2019-10-09 10:00:00 18.9 5 Este 8 Este 0 -- -- 55
2019-10-09 09:00:00 16.2 8 Noroeste 17 Sudoeste 0 -- -- 61
2019-10-09 08:00:00 13.9 11 Sudoeste 18 Sudoeste 0 -- -- 65
2019-10-09 07:00:00 13.3 14 Oeste 20 Oeste 0 -- -- 67
2019-10-09 06:00:00 14.4 13 Sudoeste 18 Sudoeste 0 -- -- 61
2019-10-09 05:00:00 13.8 4 Oeste 12 Oeste 0 -- -- 65
2019-10-09 04:00:00 14.4 12 Oeste 26 Oeste 0 -- -- 62
2019-10-09 03:00:00 15.4 22 Oeste 28 Oeste 0 -- -- 60
2019-10-09 02:00:00 15.8 23 Oeste 28 Oeste 0 -- -- 60
2019-10-09 01:00:00 15.5 24 Oeste 31 Oeste 0 -- -- 65
2019-10-09 00:00:00 15.3 27 Oeste 31 Oeste 0 -- -- 69
2019-10-08 23:00:00 16 22 Oeste 27 Oeste 0 -- -- 70
2019-10-08 22:00:00 15 18 Oeste 23 Sudoeste 0 -- -- 77
2019-10-08 21:00:00 14.8 12 Sudoeste 17 Sudoeste 0 -- -- 79
2019-10-08 20:00:00 15.1 15 Sudoeste 21 Sudoeste 0 -- -- 82
2019-10-08 19:00:00 17.3 9 Sur 20 Sur 0 -- -- 75
2019-10-08 18:00:00 19.6 13 Sur 22 Sur 0 -- -- 66
2019-10-08 17:00:00 21.1 14 Sudeste 23 Sur 0 -- -- 60
2019-10-08 16:00:00 21.7 13 Sudeste 24 Sudeste 0 -- -- 55
2019-10-08 15:00:00 21.4 14 Sudeste 23 Sudeste 0 -- -- 55
2019-10-08 14:00:00 20.9 9 Sur 21 Sudeste 0 -- -- 57
2019-10-08 13:00:00 20 10 Sudeste 19 Sudeste 0 -- -- 59
2019-10-08 12:00:00 19.9 8 Este 19 Este 0 -- -- 62
2019-10-08 11:00:00 18.8 4 Sudeste 19 Noroeste 0 -- -- 65
2019-10-08 10:00:00 17 9 Norte 20 Oeste 0 -- -- 67
2019-10-08 09:00:00 13.4 6 Sur 13 Oeste 0 -- -- 81
2019-10-08 08:00:00 11 4 Oeste 23 Noroeste 0 -- -- 86
2019-10-08 07:00:00 12 18 Oeste 26 Oeste 0 -- -- 83
2019-10-08 06:00:00 11.2 3 Oeste 21 Oeste 0 -- -- 80
2019-10-08 05:00:00 13.4 21 Oeste 44 Oeste 0 -- -- 73
2019-10-08 04:00:00 13.5 34 Oeste 45 Oeste 0 -- -- 72
2019-10-08 03:00:00 13.6 38 Oeste 54 Oeste 0 -- -- 73
2019-10-08 02:00:00 14 43 Oeste 59 Oeste 0 -- -- 66
2019-10-08 01:00:00 13.9 45 Oeste 58 Oeste 0 -- -- 68
2019-10-08 00:00:00 14 43 Oeste 60 Noroeste 0 -- -- 67
2019-10-07 23:00:00 14.3 39 Oeste 54 Oeste 0 -- -- 72
2019-10-07 22:00:00 14.4 28 Oeste 48 Oeste 0 -- -- 70
2019-10-07 21:00:00 15.1 30 Oeste 41 Oeste 0 -- -- 65
2019-10-07 20:00:00 15.7 22 Oeste 47 Oeste 0 -- -- 61
2019-10-07 19:00:00 17 35 Noroeste 53 Noroeste 0 -- -- 56
2019-10-07 18:00:00 18.2 30 Noroeste 46 Oeste 0 -- -- 50
2019-10-07 17:00:00 18.7 17 Noroeste 31 Oeste 0 -- -- 49
2019-10-07 16:00:00 18.7 12 Noroeste 35 Noroeste 0 -- -- 48
2019-10-07 15:00:00 18.8 23 Noroeste 41 Noroeste 0 -- -- 45
2019-10-07 14:00:00 17 23 Noroeste 45 Norte 0 -- -- 45
2019-10-07 13:00:00 16.9 22 Noroeste 39 Norte 0 -- -- 45
2019-10-07 12:00:00 14.8 20 Noroeste 33 Noroeste 0 -- -- 46
2019-10-07 11:00:00 11.2 16 Norte 33 Noroeste 0 -- -- 49
2019-10-07 10:00:00 10 14 Noroeste 57 Oeste 0 -- -- 51
2019-10-07 09:00:00 11.1 36 Oeste 63 Oeste 0 -- -- 45
2019-10-07 08:00:00 9.3 22 Oeste 45 Oeste 0 -- -- 55
2019-10-07 07:00:00 9.7 15 Noroeste 43 Oeste 0 -- -- 50
2019-10-07 06:00:00 9.9 18 Noroeste 43 Noroeste 0 -- -- 58
2019-10-07 05:00:00 10.4 19 Noroeste 36 Noroeste 0 -- -- 61
2019-10-07 04:00:00 8.3 8 Norte 25 Norte 0 -- -- 91
2019-10-07 03:00:00 9.9 11 Norte 42 Noroeste 0 -- -- 79
2019-10-07 02:00:00 13.3 28 Oeste 47 Oeste 0 -- -- 57
2019-10-07 01:00:00 11.2 13 Noroeste 37 Noroeste 0 -- -- 78
2019-10-07 00:00:00 11.8 14 Noroeste 31 Oeste 0 -- -- 75
2019-10-06 23:00:00 12.2 2 Sur 17 Norte 0 -- -- 65
2019-10-06 22:00:00 11.8 3 Oeste 15 Oeste 0 -- -- 68
2019-10-06 21:00:00 14.4 9 Oeste 19 Oeste 0 -- -- 57
2019-10-06 20:00:00 14.7 3 Sudoeste 18 Oeste 0 -- -- 56
2019-10-06 19:00:00 17.3 13 Oeste 25 Noroeste 0 -- -- 45
2019-10-06 18:00:00 19.6 11 Oeste 31 Oeste 0 -- -- 39
2019-10-06 17:00:00 20 14 Oeste 26 Sudoeste 0 -- -- 42
2019-10-06 16:00:00 20.1 15 Oeste 25 Oeste 0 -- -- 42
2019-10-06 15:00:00 20.4 16 Oeste 30 Oeste 0 -- -- 36
2019-10-06 14:00:00 19.8 13 Oeste 29 Sudoeste 0 -- -- 40
2019-10-06 13:00:00 18.2 16 Noroeste 28 Oeste 0 -- -- 43
2019-10-06 12:00:00 19.5 11 Noroeste 21 Oeste 0 -- -- 40
2019-10-06 11:00:00 17.9 9 Oeste 21 Oeste 0 -- -- 50
2019-10-06 10:00:00 16.1 10 Oeste 17 Oeste 0 -- -- 56
2019-10-06 09:00:00 13.1 13 Oeste 23 Oeste 0 -- -- 65
2019-10-06 08:00:00 10.6 11 Sudoeste 20 Oeste 0 -- -- 71
2019-10-06 07:00:00 11 17 Oeste 24 Oeste 0 -- -- 70
2019-10-06 06:00:00 10.8 17 Oeste 22 Oeste 0 -- -- 71
2019-10-06 05:00:00 11.9 17 Oeste 22 Oeste 0 -- -- 66
2019-10-06 04:00:00 11.2 15 Oeste 19 Oeste 0 -- -- 67
2019-10-06 03:00:00 11.6 16 Oeste 18 Oeste 0 -- -- 67
2019-10-06 02:00:00 12.5 8 Sudoeste 15 Oeste 0 -- -- 67
2019-10-06 01:00:00 12.4 13 Oeste 17 Oeste 0 -- -- 68
2019-10-06 00:00:00 13.4 4 Sudoeste 15 Sudoeste 0 -- -- 59
2019-10-05 23:00:00 12.6 6 Oeste 13 Sudoeste 0 -- -- 66
2019-10-05 22:00:00 12.8 9 Sudoeste 13 Oeste 0 -- -- 81
2019-10-05 21:00:00 13.4 3 Oeste 9 Sudoeste 0 -- -- 90
2019-10-05 20:00:00 14.6 3 Sudoeste 10 Este 0 -- -- 86
2019-10-05 19:00:00 18.5 4 Este 20 Noroeste 0 -- -- 74
2019-10-05 18:00:00 21.4 13 Oeste 22 Noroeste 0 -- -- 35
2019-10-05 17:00:00 21.9 2 Sudoeste 16 Sudeste 0 -- -- 49
2019-10-05 16:00:00 21.4 7 Este 23 Este 0 -- -- 55
2019-10-05 15:00:00 21.6 12 Este 23 Nordeste 0 -- -- 56
2019-10-05 14:00:00 21.5 12 Este 18 Este 0 -- -- 53
2019-10-05 13:00:00 21 8 Noroeste 22 Oeste 0 -- -- 38
2019-10-05 12:00:00 19.9 10 Sudoeste 30 Oeste 0 -- -- 42
2019-10-05 11:00:00 18.7 20 Oeste 30 Oeste 0 -- -- 45
2019-10-05 10:00:00 17.3 17 Oeste 30 Oeste 0 -- -- 49
2019-10-05 09:00:00 14.2 19 Oeste 25 Oeste 0 -- -- 59
2019-10-05 08:00:00 11.6 20 Oeste 24 Oeste 0 -- -- 69
2019-10-05 07:00:00 11.6 19 Oeste 28 Oeste 0 -- -- 78
2019-10-05 06:00:00 11.8 13 Oeste 26 Oeste 0 -- -- 77
2019-10-05 05:00:00 13.1 18 Oeste 28 Oeste 0 -- -- 71
2019-10-05 04:00:00 12.6 20 Oeste 24 Oeste 0 -- -- 63
2019-10-05 03:00:00 12.8 17 Oeste 23 Oeste 0 -- -- 68
2019-10-05 02:00:00 12.9 17 Oeste 20 Oeste 0 -- -- 65
2019-10-05 01:00:00 12.3 12 Oeste 22 Oeste 0 -- -- 65
2019-10-05 00:00:00 13.2 16 Noroeste 24 Oeste 0 -- -- 66
2019-10-04 23:00:00 13.1 22 Oeste 24 Oeste 0 -- -- 59
2019-10-04 22:00:00 13.7 14 Oeste 19 Oeste 0 -- -- 62
2019-10-04 21:00:00 14 15 Sudoeste 20 Sudoeste 0 -- -- 64
2019-10-04 20:00:00 14.3 6 Sudoeste 13 Sur 0 -- -- 66
2019-10-04 19:00:00 18.2 5 Sur 17 Sudeste 0 -- -- 57
2019-10-04 18:00:00 20.4 10 Sudeste 17 Sudeste 0 -- -- 52
2019-10-04 17:00:00 21.4 7 Este 22 Nordeste 0 -- -- 47
2019-10-04 16:00:00 22.3 15 Este 28 Nordeste 0 -- -- 41
2019-10-04 15:00:00 22 11 Sur 30 Sudeste 0 -- -- 43
2019-10-04 14:00:00 21.2 19 Sur 31 Sudeste 0 -- -- 43
2019-10-04 13:00:00 21.1 9 Sur 22 Norte 0 -- -- 48
2019-10-04 12:00:00 20.9 10 Norte 18 Noroeste 0 -- -- 45
2019-10-04 11:00:00 18.4 8 Oeste 34 Oeste 0 -- -- 51
2019-10-04 10:00:00 16.4 30 Oeste 41 Oeste 0 -- -- 54
2019-10-04 09:00:00 15.1 21 Noroeste 37 Oeste 0 -- -- 57
2019-10-04 08:00:00 13.6 22 Oeste 33 Oeste 0 -- -- 55
2019-10-04 07:00:00 13.7 22 Oeste 49 Oeste 0 -- -- 51
2019-10-04 06:00:00 14.3 40 Oeste 59 Oeste 0 -- -- 50
2019-10-04 05:00:00 13.5 45 Oeste 60 Oeste 0 -- -- 57
2019-10-04 04:00:00 13.5 48 Oeste 61 Oeste 0 -- -- 52
2019-10-04 03:00:00 13.9 43 Oeste 58 Oeste 0 -- -- 47
2019-10-04 02:00:00 14.8 41 Oeste 55 Oeste 0 -- -- 47
2019-10-04 01:00:00 12.5 24 Oeste 32 Noroeste 0 -- -- 56
2019-10-04 00:00:00 13.3 15 Oeste 29 Noroeste 0 -- -- 52
2019-10-03 23:00:00 13.1 17 Noroeste 25 Oeste 0 -- -- 44
2019-10-03 22:00:00 10.9 15 Sudoeste 19 Sudoeste 0 -- -- 40
2019-10-03 21:00:00 11.4 9 Oeste 14 Sudoeste 0 -- -- 38
2019-10-03 20:00:00 13 10 Sudoeste 13 Sudoeste 0 -- -- 35
2019-10-03 19:00:00 19 8 Noroeste 20 Oeste 0 -- -- 27
2019-10-03 18:00:00 20.4 11 Oeste 28 Noroeste 0 -- -- 26
2019-10-03 17:00:00 21 15 Noroeste 28 Norte 0 -- -- 25
2019-10-03 16:00:00 21 13 Noroeste 29 Noroeste 0 -- -- 23
2019-10-03 15:00:00 20.3 15 Noroeste 33 Oeste 0 -- -- 24
2019-10-03 14:00:00 19.5 11 Noroeste 35 Noroeste 0 -- -- 28
2019-10-03 13:00:00 17.3 17 Noroeste 41 Noroeste 0 -- -- 23
2019-10-03 12:00:00 16.3 27 Oeste 44 Oeste 0 -- -- 27
2019-10-03 11:00:00 17.1 13 Oeste 28 Oeste 0 -- -- 21
2019-10-03 10:00:00 11 8 Sudeste 14 Sudeste 0 -- -- 46
2019-10-03 09:00:00 7.5 0 Calma 9 Oeste 0 -- -- 52
2019-10-03 08:00:00 5.7 4 Oeste 17 Sudoeste 0 -- -- 55
2019-10-03 07:00:00 5.6 9 Sudoeste 13 Sudoeste 0 -- -- 60
2019-10-03 06:00:00 6 3 Sudoeste 11 Sur 0 -- -- 55
2019-10-03 05:00:00 5.5 3 Oeste 29 Oeste 0 -- -- 67
2019-10-03 04:00:00 8.2 29 Oeste 51 Oeste 0 -- -- 52
2019-10-03 03:00:00 7.5 36 Oeste 49 Oeste 0 -- -- 66
2019-10-03 02:00:00 8.5 30 Oeste 44 Oeste 0 -- -- 64
2019-10-03 01:00:00 8 12 Oeste 61 Oeste 0 -- -- 76
2019-10-03 00:00:00 8.5 41 Oeste 68 Noroeste 0 -- -- 75
2019-10-02 23:00:00 8.2 56 Oeste 71 Oeste 0 -- -- 80
2019-10-02 22:00:00 9 50 Oeste 75 Oeste 0 -- -- 75
2019-10-02 21:00:00 9.5 50 Oeste 68 Oeste 0 -- -- 73
2019-10-02 20:00:00 10.7 44 Oeste 59 Oeste 0 -- -- 65
2019-10-02 19:00:00 12 43 Oeste 56 Oeste 0 -- -- 59
2019-10-02 18:00:00 13.5 29 Oeste 48 Noroeste 0 -- -- 56
2019-10-02 17:00:00 14.2 31 Noroeste 49 Oeste 0 -- -- 55
2019-10-02 16:00:00 13.9 37 Noroeste 66 Oeste 0 -- -- 57
2019-10-02 15:00:00 13.6 39 Oeste 56 Noroeste 0 -- -- 59
2019-10-02 14:00:00 13.7 26 Noroeste 45 Noroeste 0 -- -- 57
2019-10-02 13:00:00 13.3 20 Oeste 49 Noroeste 0 -- -- 62
2019-10-02 12:00:00 12.6 29 Oeste 43 Oeste 0 -- -- 63
2019-10-02 11:00:00 11.8 21 Noroeste 61 Oeste 0 -- -- 63
2019-10-02 10:00:00 10.3 35 Noroeste 55 Oeste 0 -- -- 73
2019-10-02 09:00:00 9.3 15 Noroeste 33 Sudoeste 0 -- -- 85
2019-10-02 08:00:00 8.4 10 Noroeste 49 Oeste 0 -- -- 89
2019-10-02 07:00:00 8.6 26 Noroeste 48 Noroeste 0 -- -- 84
2019-10-02 06:00:00 9.4 15 Noroeste 46 Noroeste 0 -- -- 78
2019-10-02 05:00:00 10.3 18 Noroeste 34 Oeste 0 -- -- 73
2019-10-02 04:00:00 10.9 18 Oeste 35 Noroeste 0 -- -- 72
2019-10-02 03:00:00 11.6 18 Noroeste 42 Noroeste 0 -- -- 71
2019-10-02 02:00:00 12.2 20 Noroeste 41 Oeste 0 -- -- 70
2019-10-02 01:00:00 12.7 13 Noroeste 28 Oeste 0 -- -- 66
2019-10-02 00:00:00 13.4 18 Noroeste 33 Noroeste 0 -- -- 66
2019-10-01 23:00:00 14.1 19 Noroeste 41 Oeste 0 -- -- 61
2019-10-01 22:00:00 15.5 26 Noroeste 41 Oeste 0 -- -- 56
2019-10-01 21:00:00 16.2 13 Noroeste 20 Noroeste 0 -- -- 56
2019-10-01 20:00:00 17.2 12 Oeste 20 Oeste 0 -- -- 42
2019-10-01 19:00:00 20.8 10 Noroeste 25 Oeste 0 -- -- 35
2019-10-01 18:00:00 22.2 14 Oeste 26 Oeste 0 -- -- 34
2019-10-01 17:00:00 22.3 16 Oeste 30 Oeste 0 -- -- 31
2019-10-01 16:00:00 22.6 15 Oeste 26 Sudoeste 0 -- -- 33
2019-10-01 15:00:00 22.8 9 Sudoeste 26 Sudoeste 0 -- -- 34
2019-10-01 14:00:00 22.4 10 Oeste 32 Sudoeste 0 -- -- 35
2019-10-01 13:00:00 22.1 19 Oeste 39 Oeste 0 -- -- 34
2019-10-01 12:00:00 21.3 26 Oeste 37 Oeste 0 -- -- 37
2019-10-01 11:00:00 21 21 Oeste 36 Sudoeste 0 -- -- 37
2019-10-01 10:00:00 18.9 19 Oeste 30 Oeste 0 -- -- 38
2019-10-01 09:00:00 16.5 17 Oeste 24 Oeste 0 -- -- 44
2019-10-01 08:00:00 13.2 14 Oeste 20 Oeste 0 -- -- 51
2019-10-01 07:00:00 12.3 13 Oeste 16 Oeste 0 -- -- 53
2019-10-01 06:00:00 13.9 11 Oeste 20 Oeste 0 -- -- 48
2019-10-01 05:00:00 13.7 10 Sudoeste 17 Sudoeste 0 -- -- 50
2019-10-01 04:00:00 12 10 Oeste 16 Oeste 0 -- -- 55
2019-10-01 03:00:00 12.1 7 Sudoeste 13 Oeste 0 -- -- 58
2019-10-01 02:00:00 13.7 13 Oeste 18 Oeste 0 -- -- 53
2019-10-01 01:00:00 15 17 Oeste 24 Oeste 0 -- -- 52
2019-10-01 00:00:00 15.1 19 Oeste 26 Oeste 0 -- -- 60
2019-09-30 23:00:00 14.5 15 Oeste 19 Oeste 0 -- -- 74
2019-09-30 22:00:00 14.9 15 Sudoeste 18 Sudoeste 0 -- -- 79
2019-09-30 21:00:00 14.8 14 Sudoeste 20 Sudoeste 0 -- -- 83
2019-09-30 20:00:00 16.2 13 Sudoeste 20 Sudoeste 0 -- -- 87
2019-09-30 19:00:00 18.7 12 Sur 27 Sur 0 -- -- 78
2019-09-30 18:00:00 20.3 18 Sur 29 Sur 0 -- -- 67
2019-09-30 17:00:00 21.4 18 Sur 31 Sur 0 -- -- 57
2019-09-30 16:00:00 22.1 20 Sur 28 Sur 0 -- -- 50
2019-09-30 15:00:00 22.6 13 Sudeste 28 Sudeste 0 -- -- 42
2019-09-30 14:00:00 22.8 12 Sudeste 26 Sur 0 -- -- 36
2019-09-30 13:00:00 22.5 12 Sudeste 22 Sudeste 0 -- -- 37
2019-09-30 12:00:00 21.9 12 Sur 19 Sur 0 -- -- 39
2019-09-30 11:00:00 21.2 8 Este 13 Sudeste 0 -- -- 38
2019-09-30 10:00:00 19.7 4 Nordeste 6 Nordeste 0 -- -- 44
2019-09-30 09:00:00 16.8 2 Sudoeste 12 Sudoeste 0 -- -- 50
2019-09-30 08:00:00 13.8 7 Sudoeste 15 Oeste 0 -- -- 51
2019-09-30 07:00:00 14.2 6 Sudoeste 13 Oeste 0 -- -- 49
2019-09-30 06:00:00 14.4 5 Oeste 21 Oeste 0 -- -- 48
2019-09-30 05:00:00 15.1 13 Oeste 23 Oeste 0 -- -- 45
2019-09-30 04:00:00 14.8 4 Oeste 26 Oeste 0 -- -- 46
2019-09-30 03:00:00 15.3 21 Oeste 27 Oeste 0 -- -- 45
2019-09-30 02:00:00 16.1 21 Oeste 31 Oeste 0 -- -- 44
2019-09-30 01:00:00 15.9 19 Oeste 27 Oeste 0 -- -- 48
2019-09-30 00:00:00 16.2 20 Oeste 30 Oeste 0 -- -- 42
2019-09-29 23:00:00 14.5 14 Oeste 19 Oeste 0 -- -- 46
2019-09-29 22:00:00 15.8 14 Oeste 20 Oeste 0 -- -- 45
2019-09-29 21:00:00 17.2 18 Oeste 21 Oeste 0 -- -- 42
2019-09-29 20:00:00 17.1 15 Oeste 17 Oeste 0 -- -- 44
2019-09-29 19:00:00 22 12 Oeste 26 Oeste 0 -- -- 34
2019-09-29 18:00:00 23.3 16 Oeste 31 Noroeste 0 -- -- 30
2019-09-29 17:00:00 24 14 Sudoeste 32 Oeste 0 -- -- 28
2019-09-29 16:00:00 24.2 12 Oeste 34 Oeste 0 -- -- 29
2019-09-29 15:00:00 23.5 20 Sudoeste 30 Sudoeste 0 -- -- 27
2019-09-29 14:00:00 22.9 16 Oeste 33 Oeste 0 -- -- 32
2019-09-29 13:00:00 22 13 Oeste 31 Oeste 0 -- -- 33
2019-09-29 12:00:00 21.3 19 Oeste 31 Sudoeste 0 -- -- 36
2019-09-29 11:00:00 20.6 10 Noroeste 21 Oeste 0 -- -- 39
2019-09-29 10:00:00 18.1 5 Sudeste 8 Sudeste 0 -- -- 49
2019-09-29 09:00:00 15.3 8 Oeste 24 Oeste 0 -- -- 56
2019-09-29 08:00:00 12.4 19 Oeste 23 Oeste 0 -- -- 65
2019-09-29 07:00:00 11.6 0 Calma 17 Sudoeste 0 -- -- 79
2019-09-29 06:00:00 10.8 8 Sur 10 Sur 0 -- -- 92
2019-09-29 05:00:00 12.6 5 Oeste 14 Sudoeste 0 -- -- 87
2019-09-29 04:00:00 12.7 13 Sudoeste 18 Sudoeste 0 -- -- 83
2019-09-29 03:00:00 12.6 12 Sudoeste 14 Sudoeste 0 -- -- 77
2019-09-29 02:00:00 12.7 13 Sudoeste 15 Sudoeste 0 -- -- 74
2019-09-29 01:00:00 12.3 11 Sudoeste 19 Oeste 0 -- -- 70
2019-09-29 00:00:00 12.8 12 Oeste 17 Sudoeste 0 -- -- 79
2019-09-28 23:00:00 13.1 15 Sudoeste 19 Sudoeste 0 -- -- 91
2019-09-28 22:00:00 13.9 13 Sudoeste 20 Sur 0 -- -- 91
2019-09-28 21:00:00 14.9 17 Sur 28 Sur 0 -- -- 91
2019-09-28 20:00:00 15.2 16 Sur 25 Sur 0 -- -- 94
2019-09-28 19:00:00 16.4 15 Sur 28 Sur 0 -- -- 86
2019-09-28 18:00:00 18.7 17 Sur 27 Sur 0 -- -- 76
2019-09-28 17:00:00 19.2 16 Sudeste 29 Sur 0 -- -- 75
2019-09-28 16:00:00 20.2 14 Sudeste 27 Sur 0 -- -- 64
2019-09-28 15:00:00 20.3 16 Sudeste 30 Sudeste 0 -- -- 60
2019-09-28 14:00:00 20.3 11 Sudeste 27 Sudeste 0 -- -- 56
2019-09-28 13:00:00 19.7 11 Este 23 Este 0 -- -- 65
2019-09-28 12:00:00 19.5 14 Sudeste 26 Sudeste 0 -- -- 56
2019-09-28 11:00:00 18.1 7 Sudeste 13 Sudeste 0 -- -- 69
2019-09-28 10:00:00 17 4 Nordeste 5 Nordeste 0 -- -- 69
2019-09-28 09:00:00 13.4 4 Oeste 11 Sudoeste 0 -- -- 77
2019-09-28 08:00:00 10.8 8 Sudoeste 11 Sudoeste 0 -- -- 91
2019-09-28 07:00:00 11.1 5 Sudoeste 9 Oeste 0 -- -- 89
2019-09-28 06:00:00 11.5 2 Oeste 9 Oeste 0 -- -- 82
2019-09-28 05:00:00 12.7 4 Oeste 15 Noroeste 0 -- -- 76
2019-09-28 04:00:00 13.4 8 Oeste 17 Oeste 0 -- -- 72
2019-09-28 03:00:00 12.8 4 Este 18 Oeste 0 -- -- 72
2019-09-28 02:00:00 13.7 17 Oeste 28 Oeste 0 -- -- 67
2019-09-28 01:00:00 14.3 26 Oeste 28 Oeste 0 -- -- 71
2019-09-28 00:00:00 14.1 13 Oeste 17 Oeste 0 -- -- 88
2019-09-27 23:00:00 14.2 9 Sudoeste 12 Sudoeste 0 -- -- 91
2019-09-27 22:00:00 14.6 0 Calma 10 Sudoeste 0 -- -- 90
2019-09-27 21:00:00 15.3 4 Sudoeste 9 Sur 0 -- -- 89
2019-09-27 20:00:00 16.9 7 Sur 10 Sur 0 -- -- 85
2019-09-27 19:00:00 18.5 7 Nordeste 18 Este 0 -- -- 84
2019-09-27 18:00:00 19.3 10 Este 18 Este 0 -- -- 76
2019-09-27 17:00:00 20.7 10 Este 19 Este 0 -- -- 65
2019-09-27 16:00:00 20.4 12 Este 24 Este 0 -- -- 66
2019-09-27 15:00:00 22.8 6 Sudeste 56 Sur 0 -- -- 54
2019-09-27 14:00:00 22.7 11 Sudeste 21 Sudeste 0 -- -- 45
2019-09-27 13:00:00 22 11 Este 18 Este 0 -- -- 46
2019-09-27 12:00:00 21 8 Este 16 Sudeste 0 -- -- 48
2019-09-27 11:00:00 20.3 5 Este 12 Noroeste 0 -- -- 49
2019-09-27 10:00:00 18.4 8 Noroeste 17 Oeste 0 -- -- 55
2019-09-27 09:00:00 15.7 9 Oeste 17 Oeste 0 -- -- 62
2019-09-27 08:00:00 12.7 6 Oeste 13 Oeste 0 -- -- 67
2019-09-27 07:00:00 13.2 6 Oeste 14 Oeste 0 -- -- 65
2019-09-27 06:00:00 13.5 4 Oeste 12 Sudoeste 0 -- -- 65
2019-09-27 05:00:00 14.2 8 Sudoeste 15 Sudoeste 0 -- -- 65
2019-09-27 04:00:00 13.8 4 Oeste 14 Oeste 0 -- -- 66
2019-09-27 03:00:00 14.3 6 Oeste 21 Noroeste 0 -- -- 64
2019-09-27 02:00:00 14.5 5 Oeste 21 Oeste 0 -- -- 65
2019-09-27 01:00:00 15.3 18 Oeste 30 Oeste 0 -- -- 65
2019-09-27 00:00:00 15.7 23 Oeste 28 Oeste 0 -- -- 65
2019-09-26 23:00:00 14.1 11 Sudoeste 14 Sudoeste 0 -- -- 75
2019-09-26 22:00:00 14.4 9 Sudoeste 18 Oeste 0 -- -- 77
2019-09-26 21:00:00 15 12 Sudoeste 16 Sudoeste 0 -- -- 82
2019-09-26 20:00:00 16.1 13 Sudoeste 27 Sur 0 -- -- 85
2019-09-26 19:00:00 18.8 18 Sur 25 Sur 0 -- -- 70
2019-09-26 18:00:00 21.1 13 Sur 31 Sudeste 0 -- -- 59
2019-09-26 17:00:00 21.8 12 Sudeste 24 Sudeste 0 -- -- 52
2019-09-26 16:00:00 21.9 10 Sudeste 22 Sudeste 0 -- -- 49
2019-09-26 15:00:00 21.2 12 Sur 25 Sudeste 0 -- -- 52
2019-09-26 14:00:00 20.5 13 Sudeste 27 Sur 0 -- -- 54
2019-09-26 13:00:00 19.3 17 Sudeste 30 Sudeste 0 -- -- 58
2019-09-26 12:00:00 17.8 16 Sudeste 28 Sudeste 0 -- -- 60
2019-09-26 11:00:00 17.1 14 Sudeste 22 Sur 0 -- -- 57
2019-09-26 10:00:00 16.3 8 Sudeste 12 Sur 0 -- -- 59
2019-09-26 09:00:00 13.7 2 Sur 10 Sudoeste 0 -- -- 66
2019-09-26 08:00:00 10.7 4 Oeste 9 Sudoeste 0 -- -- 72
2019-09-26 07:00:00 10 0 Calma 9 Oeste 0 -- -- 74
2019-09-26 06:00:00 11.3 0 Calma 24 Oeste 0 -- -- 69
2019-09-26 05:00:00 11.9 12 Oeste 19 Oeste 0 -- -- 64
2019-09-26 04:00:00 12.1 17 Oeste 24 Oeste 0 -- -- 64
2019-09-26 03:00:00 11.7 10 Oeste 27 Oeste 0 -- -- 66
2019-09-26 02:00:00 12 23 Oeste 26 Oeste 0 -- -- 64
2019-09-26 01:00:00 12.9 12 Oeste 24 Oeste 0 -- -- 59
2019-09-26 00:00:00 12.5 12 Oeste 19 Oeste 0 -- -- 61
2019-09-25 23:00:00 12.3 13 Oeste 20 Oeste 0 -- -- 64
2019-09-25 22:00:00 12 10 Oeste 15 Oeste 0 -- -- 69
2019-09-25 21:00:00 12.4 3 Oeste 10 Oeste 0 -- -- 92
2019-09-25 20:00:00 14 6 Oeste 16 Oeste 0 -- -- 65
2019-09-25 19:00:00 17.3 12 Oeste 23 Sudoeste 0 -- -- 55
2019-09-25 18:00:00 17.7 10 Oeste 23 Oeste 0 -- -- 54
2019-09-25 17:00:00 19.3 13 Oeste 28 Sudoeste 0 -- -- 47
2019-09-25 16:00:00 20.4 8 Noroeste 24 Nordeste 0 -- -- 51
2019-09-25 15:00:00 18.6 10 Sur 23 Sudeste 0 -- -- 56
2019-09-25 14:00:00 18.4 13 Sudeste 21 Sudeste 0 -- -- 58
2019-09-25 13:00:00 17.3 5 Norte 16 Nordeste 0 -- -- 62
2019-09-25 12:00:00 17.2 9 Nordeste 27 Norte 0 -- -- 64
2019-09-25 11:00:00 15.2 12 Noroeste 21 Norte 0 -- -- 70
2019-09-25 10:00:00 13.9 5 Oeste 18 Oeste 0 -- -- 75
2019-09-25 09:00:00 11.9 11 Oeste 25 Oeste 0 -- -- 81
2019-09-25 08:00:00 11 21 Oeste 27 Oeste 0 -- -- 87
2019-09-25 07:00:00 11.3 11 Oeste 26 Noroeste 0 -- -- 88
2019-09-25 06:00:00 11.9 13 Oeste 28 Oeste 0 -- -- 89
2019-09-25 05:00:00 12.4 13 Noroeste 18 Noroeste 0 -- -- 86
2019-09-25 04:00:00 13.4 11 Noroeste 24 Oeste 0 -- -- 84
2019-09-25 03:00:00 13.5 12 Oeste 19 Oeste 0 -- -- 81
2019-09-25 02:00:00 13.2 10 Oeste 17 Oeste 0 -- -- 81
2019-09-25 01:00:00 13.8 11 Oeste 21 Oeste 0 -- -- 76
2019-09-25 00:00:00 14.3 14 Oeste 19 Oeste 0 -- -- 67
2019-09-24 23:00:00 14.7 9 Oeste 17 Oeste 0 -- -- 70
2019-09-24 22:00:00 15.5 12 Oeste 19 Oeste 0 -- -- 66
2019-09-24 21:00:00 16 13 Oeste 18 Oeste 0 -- -- 62
2019-09-24 20:00:00 18 12 Oeste 22 Oeste 0 -- -- 51
2019-09-24 19:00:00 21.9 11 Oeste 31 Sudoeste 0 -- -- 40
2019-09-24 18:00:00 23.2 12 Oeste 26 Oeste 0 -- -- 35
2019-09-24 17:00:00 23 21 Oeste 32 Oeste 0 -- -- 34
2019-09-24 16:00:00 23.3 15 Oeste 33 Sudoeste 0 -- -- 33
2019-09-24 15:00:00 23.2 20 Oeste 40 Oeste 0 -- -- 30
2019-09-24 14:00:00 22.5 28 Oeste 46 Oeste 0 -- -- 35
2019-09-24 13:00:00 22.5 26 Oeste 42 Oeste 0 -- -- 36
2019-09-24 12:00:00 22.5 9 Oeste 22 Noroeste 0 -- -- 36
2019-09-24 11:00:00 21.3 7 Noroeste 28 Sudoeste 0 -- -- 35
2019-09-24 10:00:00 18.3 21 Oeste 31 Oeste 0 -- -- 41
2019-09-24 09:00:00 17.3 8 Sudoeste 19 Oeste 0 -- -- 44
2019-09-24 08:00:00 14 15 Oeste 20 Oeste 0 -- -- 50
2019-09-24 07:00:00 12.5 10 Oeste 20 Oeste 0 -- -- 48
2019-09-24 06:00:00 12.1 4 Sudoeste 11 Oeste 0 -- -- 58
2019-09-24 05:00:00 11 5 Oeste 14 Sudoeste 0 -- -- 62
2019-09-24 04:00:00 11.6 3 Sur 8 Sudoeste 0 -- -- 61
2019-09-24 03:00:00 12.9 3 Sudoeste 23 Oeste 0 -- -- 59
2019-09-24 02:00:00 12.3 3 Sudoeste 9 Sudoeste 0 -- -- 61
2019-09-24 01:00:00 12.2 2 Oeste 20 Oeste 0 -- -- 66
2019-09-24 00:00:00 12.3 5 Oeste 11 Oeste 0 -- -- 72
2019-09-23 23:00:00 13.3 6 Oeste 18 Oeste 0 -- -- 71
2019-09-23 22:00:00 13.4 14 Oeste 17 Oeste 0 -- -- 72
2019-09-23 21:00:00 13.1 4 Oeste 17 Oeste 0 -- -- 76
2019-09-23 20:00:00 15.3 9 Oeste 16 Oeste 0 -- -- 64
2019-09-23 19:00:00 17.1 9 Oeste 24 Oeste 0 -- -- 56
2019-09-23 18:00:00 18.8 16 Sudoeste 24 Sudoeste 0 -- -- 52
2019-09-23 17:00:00 18.6 13 Oeste 26 Oeste 0 -- -- 45
2019-09-23 16:00:00 18.1 15 Sudoeste 30 Sur 0 -- -- 49
2019-09-23 15:00:00 17.3 15 Sur 30 Sur 0 -- -- 52
2019-09-23 14:00:00 17 16 Sudeste 24 Sur 0 -- -- 58
2019-09-23 13:00:00 16.8 12 Sudeste 23 Sur 0 -- -- 61
2019-09-23 12:00:00 15.8 14 Sudeste 25 Sudeste 0 -- -- 59
2019-09-23 11:00:00 14.7 5 Sur 13 Sudoeste 0 -- -- 62
2019-09-23 10:00:00 13.4 2 Nordeste 5 Este 0 -- -- 62
2019-09-23 09:00:00 11 0 Calma 9 Oeste 0 -- -- 80
2019-09-23 08:00:00 7 7 Oeste 12 Sudoeste 0 -- -- 87
2019-09-23 07:00:00 7.1 6 Sudoeste 10 Sudoeste 0 -- -- 87
2019-09-23 06:00:00 7.1 11 Oeste 14 Oeste 0 -- -- 90
2019-09-23 05:00:00 7.2 9 Oeste 14 Oeste 0 -- -- 89
2019-09-23 04:00:00 7.3 11 Oeste 15 Oeste 0 -- -- 87
2019-09-23 03:00:00 7.7 12 Oeste 14 Noroeste 0 -- -- 86
2019-09-23 02:00:00 8.7 3 Oeste 9 Norte 0 -- -- 82
2019-09-23 01:00:00 10.3 3 Noroeste 23 Oeste 0 -- -- 82
2019-09-23 00:00:00 11.2 15 Oeste 25 Oeste 0 -- -- 85
2019-09-22 23:00:00 10.7 11 Oeste 15 Oeste 0 -- -- 90
2019-09-22 22:00:00 12.2 12 Oeste 22 Oeste 0 -- -- 84
2019-09-22 21:00:00 13.4 17 Oeste 26 Oeste 0 -- -- 84
2019-09-22 20:00:00 14.3 9 Oeste 22 Sudoeste 0 -- -- 81
2019-09-22 19:00:00 15.5 14 Oeste 26 Oeste 0 -- -- 76
2019-09-22 18:00:00 17.2 13 Noroeste 31 Sudoeste 0 -- -- 71
2019-09-22 17:00:00 18.1 13 Sudoeste 39 Sur 0 -- -- 61
2019-09-22 16:00:00 18.9 24 Sudoeste 35 Sudoeste 0 -- -- 56
2019-09-22 15:00:00 19.1 23 Sur 36 Sur 0 -- -- 59
2019-09-22 14:00:00 18.7 14 Sudoeste 34 Oeste 0 -- -- 62
2019-09-22 13:00:00 19.3 16 Sudoeste 38 Oeste 0 -- -- 62
2019-09-22 12:00:00 19.1 14 Sudoeste 32 Sudoeste 0 -- -- 60
2019-09-22 11:00:00 18.1 5 Sudeste 14 Este 0 -- -- 68
2019-09-22 10:00:00 16.8 5 Este 14 Este 0 -- -- 69
2019-09-22 09:00:00 14.5 6 Este 47 Oeste 0 -- -- 74
2019-09-22 08:00:00 13.6 33 Oeste 44 Oeste 0 -- -- 68
2019-09-22 07:00:00 12.7 40 Sudoeste 56 Sudoeste 0 -- -- 80
2019-09-22 06:00:00 12.6 24 Sudoeste 45 Sudoeste 0 -- -- 85
2019-09-22 05:00:00 12.6 26 Sudoeste 48 Sudoeste 0 -- -- 86
2019-09-22 04:00:00 12.8 19 Sudoeste 31 Oeste 0 -- -- 86
2019-09-22 03:00:00 13.1 15 Sur 33 Sudoeste 0 -- -- 90
2019-09-22 02:00:00 13.3 21 Sudoeste 33 Sur 0 -- -- 89
2019-09-22 01:00:00 13.3 18 Sur 28 Sur 0 -- -- 92
2019-09-22 00:00:00 13.4 9 Sur 18 Sur 0 -- -- 92
2019-09-21 23:00:00 13.7 10 Sur 19 Sur 0 -- -- 95
2019-09-21 22:00:00 14.2 10 Sur 18 Sur 0 -- -- 94
2019-09-21 21:00:00 14.5 10 Sur 15 Sur 0 -- -- 93
2019-09-21 20:00:00 15.1 7 Sur 18 Sur 0 -- -- 85
2019-09-21 19:00:00 16.5 10 Sudoeste 18 Sudoeste 0 -- -- 69
2019-09-21 18:00:00 17.3 12 Sudoeste 29 Sudoeste 0 -- -- 67
2019-09-21 17:00:00 18.3 17 Sur 30 Sudoeste 0 -- -- 62
2019-09-21 16:00:00 17.7 12 Sudoeste 35 Sudoeste 0 -- -- 65
2019-09-21 15:00:00 17.6 12 Sur 26 Sudeste 0 -- -- 67
2019-09-21 14:00:00 17.5 12 Sudoeste 28 Sur 0 -- -- 73
2019-09-21 13:00:00 16.5 14 Sur 27 Sur 0 -- -- 71
2019-09-21 12:00:00 16.9 16 Sur 25 Sudoeste 0 -- -- 71
2019-09-21 11:00:00 16.3 15 Sudoeste 32 Sudoeste 0 -- -- 71
2019-09-21 10:00:00 14.8 15 Sudoeste 32 Sur 0 -- -- 77
2019-09-21 09:00:00 11.8 21 Oeste 32 Oeste 1 -- -- 85
2019-09-21 08:00:00 10.5 19 Oeste 41 Sudoeste 1 -- -- 93
2019-09-21 07:00:00 10.9 15 Oeste 30 Oeste 0 -- -- 88
2019-09-21 06:00:00 10.8 15 Sudoeste 23 Sudoeste 0 -- -- 91
2019-09-21 05:00:00 10 6 Sur 27 Sudoeste 6.2 -- -- 98
2019-09-21 04:00:00 9.8 17 Sudoeste 36 Oeste 11.8 -- -- 98
2019-09-21 03:00:00 11.9 2 Sur 13 Este 0.2 -- -- 100
2019-09-21 02:00:00 11.4 4 Sur 9 Sur 0 -- -- 99
2019-09-21 01:00:00 11.1 2 Sur 13 Sudeste 0 -- -- 98
2019-09-21 00:00:00 11.4 9 Este 22 Este 0 -- -- 100
2019-09-20 23:00:00 12.7 16 Este 22 Este 0 -- -- 100
2019-09-20 22:00:00 12.9 13 Sudeste 28 Este 0.6 -- -- 100
2019-09-20 21:00:00 13.1 12 Sur 21 Sur 0 -- -- 97
2019-09-20 20:00:00 13 9 Sudeste 25 Sudeste 0 -- -- 99
2019-09-20 19:00:00 13.2 17 Este 30 Este 0.4 -- -- 99
2019-09-20 18:00:00 13.7 17 Este 28 Este 0.2 -- -- 99
2019-09-20 17:00:00 14.9 15 Este 30 Este 0 -- -- 91
2019-09-20 16:00:00 16.5 18 Este 30 Este 0 -- -- 85
2019-09-20 15:00:00 16.7 17 Este 29 Este 0 -- -- 78
2019-09-20 14:00:00 16.2 19 Este 27 Este 0 -- -- 79
2019-09-20 13:00:00 16.2 18 Este 25 Este 0 -- -- 79
2019-09-20 12:00:00 14.6 14 Este 25 Este 0.2 -- -- 88
2019-09-20 11:00:00 13.9 8 Sudeste 16 Sur 0 -- -- 88
2019-09-20 10:00:00 12.4 7 Sur 12 Sur 0 -- -- 93
2019-09-20 09:00:00 10.8 3 Sur 6 Este 0 -- -- 99
2019-09-20 08:00:00 10.3 3 Sur 6 Sudoeste 0 -- -- 92
2019-09-20 07:00:00 11.4 4 Sudeste 9 Sur 0 -- -- 86
2019-09-20 06:00:00 12.4 9 Sudoeste 13 Sudoeste 0 -- -- 79
2019-09-20 05:00:00 11.9 9 Sudoeste 11 Sudoeste 0 -- -- 84
2019-09-20 04:00:00 12 5 Sur 14 Sudoeste 0 -- -- 84
2019-09-20 03:00:00 12.1 11 Sudoeste 14 Sudoeste 0 -- -- 94
2019-09-20 02:00:00 12.1 10 Sudoeste 12 Sudoeste 0 -- -- 95
2019-09-20 01:00:00 12.6 2 Sudoeste 8 Oeste 0 -- -- 88
2019-09-20 00:00:00 13.4 4 Sudeste 22 Oeste 0 -- -- 86
2019-09-19 23:00:00 13.4 16 Oeste 21 Oeste 0 -- -- 83
2019-09-19 22:00:00 13.5 10 Sudoeste 13 Sudoeste 0 -- -- 88
2019-09-19 21:00:00 13.6 4 Oeste 18 Sudoeste 1.6 -- -- 88
2019-09-19 20:00:00 13.9 6 Sudoeste 12 Oeste 0.2 -- -- 91
2019-09-19 19:00:00 14.1 14 Sudoeste 20 Sudoeste 3.4 -- -- 92
2019-09-19 18:00:00 15.9 8 Norte 19 Norte 0 -- -- 81
2019-09-19 17:00:00 16 15 Nordeste 29 Nordeste 0 -- -- 83
2019-09-19 16:00:00 18.6 17 Sudeste 29 Sur 0 -- -- 73
2019-09-19 15:00:00 19.2 14 Sudeste 24 Sudeste 0 -- -- 66
2019-09-19 14:00:00 20.3 10 Sudeste 30 Sur 0 -- -- 59
2019-09-19 13:00:00 20.2 11 Sudeste 19 Sudeste 0 -- -- 64
2019-09-19 12:00:00 17.9 12 Sudeste 19 Sudeste 0 -- -- 63
2019-09-19 11:00:00 17 8 Sur 13 Sur 0.2 -- -- 66
2019-09-19 10:00:00 16.6 5 Este 8 Sudeste 0 -- -- 67
2019-09-19 09:00:00 14.6 0 Calma 8 Sudoeste 0 -- -- 75
2019-09-19 08:00:00 10.8 5 Sur 10 Sudoeste 0 -- -- 86
2019-09-19 07:00:00 10.3 8 Sudoeste 10 Sudoeste 0 -- -- 87
2019-09-19 06:00:00 10.6 6 Sudoeste 10 Sudoeste 0 -- -- 84
2019-09-19 05:00:00 11.8 4 Sudoeste 14 Sudoeste 0 -- -- 79
2019-09-19 04:00:00 12.9 12 Sudoeste 15 Sudoeste 0 -- -- 74
2019-09-19 03:00:00 12.4 11 Sudoeste 15 Sudoeste 0 -- -- 80
2019-09-19 02:00:00 11.9 9 Sudoeste 13 Sudoeste 0 -- -- 79
2019-09-19 01:00:00 11.6 7 Sudoeste 23 Oeste 0 -- -- 82
2019-09-19 00:00:00 12.2 16 Oeste 34 Noroeste 0 -- -- 84
2019-09-18 23:00:00 12.3 7 Sudoeste 31 Sur 2.8 -- -- 80
2019-09-18 22:00:00 12.6 16 Sur 30 Oeste 0.8 -- -- 85
2019-09-18 21:00:00 12.6 11 Oeste 17 Oeste 0.2 -- -- 85
2019-09-18 20:00:00 12.5 7 Sudoeste 23 Sudoeste 1.2 -- -- 84
2019-09-18 19:00:00 13.2 6 Noroeste 11 Noroeste 0.8 -- -- 83
2019-09-18 18:00:00 13.3 10 Norte 41 Noroeste 0.4 -- -- 84
2019-09-18 17:00:00 14.3 23 Noroeste 38 Noroeste 0.6 -- -- 82
2019-09-18 16:00:00 16.2 9 Este 21 Este 2.4 -- -- 85
2019-09-18 15:00:00 19.6 9 Sudeste 18 Este 0 -- -- 57
2019-09-18 14:00:00 21.1 13 Este 25 Este 0 -- -- 53
2019-09-18 13:00:00 22.2 14 Sudeste 23 Sudeste 0 -- -- 43
2019-09-18 12:00:00 21.5 7 Sudeste 13 Este 0 -- -- 45
2019-09-18 11:00:00 20 5 Este 8 Este 0 -- -- 48
2019-09-18 10:00:00 18.6 4 Sudeste 6 Sudeste 0 -- -- 48
2019-09-18 09:00:00 15.4 3 Sudoeste 9 Sudoeste 0 -- -- 56
2019-09-18 08:00:00 14.1 3 Oeste 15 Sudoeste 0 -- -- 56
2019-09-18 07:00:00 13.3 5 Oeste 14 Oeste 0 -- -- 58
2019-09-18 06:00:00 13.5 11 Sudoeste 20 Sudoeste 0 -- -- 59
2019-09-18 05:00:00 14.1 18 Oeste 24 Oeste 0 -- -- 61
2019-09-18 04:00:00 14.9 15 Sudoeste 26 Sudoeste 0 -- -- 61
2019-09-18 03:00:00 13.1 16 Sudoeste 18 Sudoeste 0 -- -- 66
2019-09-18 02:00:00 15.1 6 Sur 19 Sur 0 -- -- 56
2019-09-18 01:00:00 17.8 14 Sudoeste 24 Sur 0 -- -- 44
2019-09-18 00:00:00 16 18 Sudoeste 39 Oeste 0 -- -- 57
2019-09-17 23:00:00 14.2 33 Sudoeste 59 Sudoeste 0 -- -- 68
2019-09-17 22:00:00 15 33 Sudoeste 64 Sudoeste 0 -- -- 73
2019-09-17 21:00:00 15.7 10 Sudoeste 13 Sudoeste 0 -- -- 79